createdAt,value
2023-10-23T00:01:39.535Z,100566.75
2023-10-23T00:04:07.728Z,100574.59
2023-10-23T00:06:35.045Z,100574.84
2023-10-23T00:09:03.478Z,100549.81
2023-10-23T00:11:31.855Z,100573.38
2023-10-23T00:13:59.474Z,100577.97
2023-10-23T00:16:26.556Z,100569.66
2023-10-23T00:18:53.686Z,100566.84
2023-10-23T00:21:20.837Z,100576.22
2023-10-23T00:23:47.911Z,100582.69
2023-10-23T00:26:14.758Z,100574.44
2023-10-23T00:28:41.707Z,100584.59
2023-10-23T00:31:08.553Z,100575.44
2023-10-23T00:33:35.730Z,100590.84
2023-10-23T00:36:02.461Z,100583.38
2023-10-23T00:38:29.890Z,100589.53
2023-10-23T00:40:56.741Z,100586.22
2023-10-23T00:43:25.587Z,100598.44
2023-10-23T00:45:54.181Z,100597.22
2023-10-23T00:48:22.948Z,100596.38
2023-10-23T00:50:50.789Z,100592.22
2023-10-23T00:53:19.070Z,100584.66
2023-10-23T00:55:48.975Z,100592.69
2023-10-23T00:58:16.220Z,100592.31
2023-10-23T01:00:45.240Z,100593.19
2023-10-23T01:03:12.364Z,100591.53
2023-10-23T01:05:39.205Z,100595.16
2023-10-23T01:08:06.640Z,100586.19
2023-10-23T01:10:33.870Z,100595.00
2023-10-23T01:13:00.860Z,100594.19
2023-10-23T01:15:27.882Z,100596.56
2023-10-23T01:17:54.944Z,100602.03
2023-10-23T01:20:21.958Z,100595.72
2023-10-23T01:22:48.833Z,100603.75
2023-10-23T01:25:16.391Z,100601.41
2023-10-23T01:27:43.751Z,100587.13
2023-10-23T01:30:11.405Z,100608.97
2023-10-23T01:32:38.594Z,100601.88
2023-10-23T01:35:05.641Z,100600.41
2023-10-23T01:37:32.648Z,100604.63
2023-10-23T01:39:59.365Z,100605.69
2023-10-23T01:42:29.876Z,100604.69
2023-10-23T01:44:57.000Z,100616.66
2023-10-23T01:47:24.347Z,100615.19
2023-10-23T01:49:51.245Z,100609.97
2023-10-23T01:52:18.730Z,100618.38
2023-10-23T01:54:45.434Z,100608.66
2023-10-23T01:57:15.382Z,100607.81
2023-10-23T01:59:42.080Z,100619.00
2023-10-23T02:02:08.963Z,100613.75
2023-10-23T02:04:36.512Z,100612.06
2023-10-23T02:07:03.679Z,100601.13
2023-10-23T02:09:30.336Z,100604.50
2023-10-23T02:11:57.341Z,100619.19
2023-10-23T02:14:23.967Z,100616.44
2023-10-23T02:16:50.907Z,100624.19
2023-10-23T02:19:17.573Z,100622.09
2023-10-23T02:21:50.650Z,100607.41
2023-10-23T02:24:18.460Z,100607.78
2023-10-23T02:26:45.488Z,100623.78
2023-10-23T02:29:12.146Z,100627.94
2023-10-23T02:31:39.525Z,100633.22
2023-10-23T02:34:06.737Z,100631.97
2023-10-23T02:36:34.247Z,100632.38
2023-10-23T02:39:01.128Z,100634.72
2023-10-23T02:41:31.776Z,100640.59
2023-10-23T02:43:58.758Z,100641.06
2023-10-23T02:46:26.036Z,100652.78
2023-10-23T02:48:52.876Z,100653.63
2023-10-23T02:51:19.961Z,100652.34
2023-10-23T02:53:46.703Z,100653.34
2023-10-23T02:56:13.924Z,100659.81
2023-10-23T02:58:40.623Z,100659.34
2023-10-23T03:01:22.306Z,100660.78
2023-10-23T03:03:49.623Z,100668.53
2023-10-23T03:06:16.763Z,100647.75
2023-10-23T03:08:43.406Z,100664.97
2023-10-23T03:11:10.957Z,100660.38
2023-10-23T03:13:37.616Z,100660.44
2023-10-23T03:16:05.098Z,100668.69
2023-10-23T03:18:31.803Z,100666.19
2023-10-23T03:21:00.611Z,100663.94
2023-10-23T03:23:28.989Z,100660.38
2023-10-23T03:25:57.335Z,100674.47
2023-10-23T03:28:24.266Z,100675.75
2023-10-23T03:30:51.399Z,100665.03
2023-10-23T03:33:18.545Z,100670.91
2023-10-23T03:35:45.730Z,100665.47
2023-10-23T03:38:13.850Z,100672.59
2023-10-23T03:40:40.848Z,100670.31
2023-10-23T03:43:07.565Z,100673.91
2023-10-23T03:45:38.258Z,100669.69
2023-10-23T03:48:05.481Z,100675.38
2023-10-23T03:50:32.541Z,100670.31
2023-10-23T03:52:59.301Z,100669.69
2023-10-23T03:55:26.302Z,100675.59
2023-10-23T03:57:53.188Z,100672.41
2023-10-23T04:00:20.394Z,100672.66
2023-10-23T04:02:47.412Z,100680.41
2023-10-23T04:05:14.463Z,100690.28
2023-10-23T04:07:41.279Z,100691.13
2023-10-23T04:10:09.618Z,100690.72
2023-10-23T04:12:36.505Z,100687.34
2023-10-23T04:15:04.278Z,100686.06
2023-10-23T04:17:31.729Z,100690.50
2023-10-23T04:19:59.265Z,100700.81
2023-10-23T04:22:26.747Z,100698.69
2023-10-23T04:24:56.024Z,100703.56
2023-10-23T04:27:23.003Z,100698.50
2023-10-23T04:29:50.001Z,100703.13
2023-10-23T04:32:16.723Z,100702.72
2023-10-23T04:34:43.752Z,100701.88
2023-10-23T04:37:10.527Z,100709.22
2023-10-23T04:39:37.682Z,100692.19
2023-10-23T04:42:04.886Z,100716.78
2023-10-23T04:44:32.057Z,100703.31
2023-10-23T04:46:58.756Z,100705.66
2023-10-23T04:49:25.651Z,100713.00
2023-10-23T04:51:52.454Z,100721.38
2023-10-23T04:54:19.451Z,100722.44
2023-10-23T04:56:46.757Z,100722.88
2023-10-23T04:59:13.701Z,100721.19
2023-10-23T05:01:40.434Z,100717.16
2023-10-23T05:04:07.458Z,100712.53
2023-10-23T05:06:34.232Z,100726.81
2023-10-23T05:09:01.174Z,100724.72
2023-10-23T05:11:27.953Z,100730.38
2023-10-23T05:13:55.145Z,100734.38
2023-10-23T05:16:22.021Z,100740.47
2023-10-23T05:18:49.104Z,100731.22
2023-10-23T05:21:15.927Z,100722.16
2023-10-23T05:23:43.134Z,100723.25
2023-10-23T05:26:12.741Z,100730.16
2023-10-23T05:28:41.508Z,100738.13
2023-10-23T05:31:09.778Z,100726.13
2023-10-23T05:33:37.174Z,100737.72
2023-10-23T05:36:07.731Z,100744.81
2023-10-23T05:38:34.746Z,100733.66
2023-10-23T05:41:01.510Z,100735.97
2023-10-23T05:43:28.660Z,100743.53
2023-10-23T05:45:56.024Z,100750.69
2023-10-23T05:48:23.498Z,100746.50
2023-10-23T05:51:06.721Z,100754.09
2023-10-23T05:53:34.956Z,100758.72
2023-10-23T05:56:05.493Z,100747.56
2023-10-23T05:58:33.632Z,100755.75
2023-10-23T06:01:13.678Z,100765.00
2023-10-23T06:03:40.924Z,100771.72
2023-10-23T06:06:08.118Z,100775.94
2023-10-23T06:08:35.248Z,100774.66
2023-10-23T06:11:02.932Z,100776.56
2023-10-23T06:13:30.065Z,100765.06
2023-10-23T06:16:03.921Z,100767.78
2023-10-23T06:18:36.199Z,100746.13
2023-10-23T06:21:05.101Z,100783.56
2023-10-23T06:23:40.433Z,100778.50
2023-10-23T06:26:08.554Z,100783.81
2023-10-23T06:28:36.475Z,100798.09
2023-10-23T06:31:10.958Z,100796.47
2023-10-23T06:33:40.150Z,100799.63
2023-10-23T06:36:10.396Z,100806.34
2023-10-23T06:38:37.905Z,100794.16
2023-10-23T06:41:06.028Z,100792.88
2023-10-23T06:43:33.825Z,100810.59
2023-10-23T06:46:01.775Z,100810.59
2023-10-23T06:48:30.728Z,100809.50
2023-10-23T06:50:57.718Z,100801.94
2023-10-23T06:53:24.739Z,100803.44
2023-10-23T06:55:56.033Z,100809.09
2023-10-23T06:58:23.233Z,100805.09
2023-10-23T07:00:50.052Z,100802.56
2023-10-23T07:03:17.457Z,100798.72
2023-10-23T07:05:44.455Z,100799.09
2023-10-23T07:08:11.587Z,100795.09
2023-10-23T07:10:39.171Z,100801.16
2023-10-23T07:13:18.834Z,100790.56
2023-10-23T07:15:49.114Z,100790.34
2023-10-23T07:18:16.321Z,100792.97
2023-10-23T07:20:53.181Z,100797.03
2023-10-23T07:23:20.201Z,100801.41
2023-10-23T07:26:04.201Z,100804.09
2023-10-23T07:28:36.767Z,100813.13
2023-10-23T07:31:04.777Z,100815.19
2023-10-23T07:33:32.330Z,100814.31
2023-10-23T07:36:06.368Z,100808.16
2023-10-23T07:38:33.936Z,100819.88
2023-10-23T07:41:01.602Z,100801.94
2023-10-23T07:43:29.463Z,100828.59
2023-10-23T07:46:12.186Z,100820.38
2023-10-23T07:48:43.390Z,100836.16
2023-10-23T07:51:10.538Z,100834.25
2023-10-23T07:53:37.614Z,100839.69
2023-10-23T07:56:07.574Z,100838.16
2023-10-23T07:58:34.814Z,100823.69
2023-10-23T08:01:06.199Z,100836.41
2023-10-23T08:03:34.942Z,100840.28
2023-10-23T08:06:04.510Z,100854.56
2023-10-23T08:08:39.284Z,100849.41
2023-10-23T08:11:07.793Z,100841.69
2023-10-23T08:13:35.368Z,100840.78
2023-10-23T08:16:02.749Z,100841.97
2023-10-23T08:18:39.053Z,100842.09
2023-10-23T08:21:14.291Z,100846.69
2023-10-23T08:23:42.827Z,100850.06
2023-10-23T08:26:10.916Z,100846.81
2023-10-23T08:31:16.746Z,100850.38
2023-10-23T08:33:48.789Z,100852.84
2023-10-23T08:36:15.721Z,100850.00
2023-10-23T08:38:42.662Z,100849.66
2023-10-23T08:41:11.790Z,100845.50
2023-10-23T08:43:40.494Z,100851.00
2023-10-23T08:46:09.318Z,100839.53
2023-10-23T08:48:39.633Z,100830.81
2023-10-23T08:51:08.209Z,100853.56
2023-10-23T08:53:40.081Z,100852.75
2023-10-23T08:56:08.010Z,100857.78
2023-10-23T08:58:37.332Z,100852.56
2023-10-23T09:01:04.674Z,100844.31
2023-10-23T09:04:03.968Z,100862.06
2023-10-23T09:06:20.066Z,100852.00
2023-10-23T09:08:47.275Z,100854.91
2023-10-23T09:11:14.323Z,100845.44
2023-10-23T09:13:42.446Z,100844.97
2023-10-23T09:16:10.460Z,100850.16
2023-10-23T09:18:50.757Z,100781.38
2023-10-23T09:21:17.793Z,100850.00
2023-10-23T09:23:53.459Z,100851.53
2023-10-23T09:26:21.044Z,100847.69
2023-10-23T09:28:50.373Z,100849.47
2023-10-23T09:31:17.875Z,100844.28
2023-10-23T09:33:46.325Z,100851.78
2023-10-23T09:36:13.937Z,100846.63
2023-10-23T09:38:55.972Z,100840.41
2023-10-23T09:41:22.679Z,100839.38
2023-10-23T09:43:51.653Z,100839.84
2023-10-23T09:46:20.381Z,100830.59
2023-10-23T09:48:49.448Z,100830.59
2023-10-23T09:51:17.035Z,100829.19
2023-10-23T09:53:49.723Z,100834.84
2023-10-23T09:56:21.946Z,100836.63
2023-10-23T09:58:54.765Z,100831.53
2023-10-23T10:01:24.942Z,100834.16
2023-10-23T10:03:53.286Z,100838.63
2023-10-23T10:06:22.204Z,100831.66
2023-10-23T10:08:51.324Z,100840.13
2023-10-23T10:11:19.026Z,100837.28
2023-10-23T10:13:47.627Z,100826.66
2023-10-23T10:16:14.914Z,100825.66
2023-10-23T10:18:43.931Z,100818.44
2023-10-23T10:21:12.159Z,100825.72
2023-10-23T10:23:39.766Z,100820.91
2023-10-23T10:26:06.819Z,100825.59
2023-10-23T10:28:37.805Z,100826.50
2023-10-23T10:31:04.595Z,100814.59
2023-10-23T10:34:25.987Z,100823.53
2023-10-23T10:36:45.674Z,100819.81
2023-10-23T10:39:08.998Z,100826.75
2023-10-23T10:41:36.695Z,100818.69
2023-10-23T10:44:10.615Z,100813.03
2023-10-23T10:46:40.862Z,100822.34
2023-10-23T10:49:08.372Z,100820.75
2023-10-23T10:51:35.587Z,100821.00
2023-10-23T10:54:11.781Z,100815.00
2023-10-23T10:56:38.593Z,100821.38
2023-10-23T10:59:06.119Z,100816.97
2023-10-23T11:01:33.973Z,100804.06
2023-10-23T11:04:01.646Z,100809.41
2023-10-23T11:06:30.492Z,100784.94
2023-10-23T11:08:59.613Z,100792.16
2023-10-23T11:11:29.429Z,100803.94
2023-10-23T11:14:03.005Z,100797.28
2023-10-23T11:16:30.987Z,100793.34
2023-10-23T11:18:58.068Z,100802.66
2023-10-23T11:21:24.968Z,100797.50
2023-10-23T11:23:56.024Z,100788.06
2023-10-23T11:26:22.821Z,100797.88
2023-10-23T11:28:49.798Z,100789.66
2023-10-23T11:31:16.493Z,100794.53
2023-10-23T11:33:43.491Z,100795.44
2023-10-23T11:36:10.431Z,100796.22
2023-10-23T11:38:37.983Z,100785.69
2023-10-23T11:41:04.708Z,100797.91
2023-10-23T11:43:31.984Z,100795.59
2023-10-23T11:45:59.184Z,100800.97
2023-10-23T11:48:26.581Z,100786.06
2023-10-23T11:50:53.696Z,100788.81
2023-10-23T11:53:20.664Z,100793.38
2023-10-23T11:55:47.472Z,100793.53
2023-10-23T11:58:14.473Z,100782.03
2023-10-23T12:00:41.699Z,100787.03
2023-10-23T12:03:08.655Z,100792.91
2023-10-23T12:05:35.458Z,100796.22
2023-10-23T12:08:03.000Z,100791.53
2023-10-23T12:10:29.824Z,100797.00
2023-10-23T12:12:57.225Z,100789.81
2023-10-23T12:15:24.823Z,100781.13
2023-10-23T12:17:52.241Z,100784.97
2023-10-23T12:20:22.945Z,100787.06
2023-10-23T12:22:51.281Z,100794.56
2023-10-23T12:25:18.407Z,100783.88
2023-10-23T12:27:45.739Z,100797.28
2023-10-23T12:30:16.250Z,100785.72
2023-10-23T12:33:12.043Z,100788.38
2023-10-23T12:35:33.018Z,100776.31
2023-10-23T12:38:00.108Z,100785.25
2023-10-23T12:40:30.277Z,100775.47
2023-10-23T12:42:59.547Z,100775.91
2023-10-23T12:45:27.122Z,100761.56
2023-10-23T12:47:54.109Z,100762.56
2023-10-23T12:50:20.890Z,100769.03
2023-10-23T12:52:49.516Z,100777.44
2023-10-23T12:55:17.283Z,100768.75
2023-10-23T12:57:44.538Z,100765.13
2023-10-23T13:00:14.806Z,100762.53
2023-10-23T13:02:43.382Z,100769.38
2023-10-23T13:05:10.765Z,100767.16
2023-10-23T13:07:38.275Z,100765.88
2023-10-23T13:10:05.439Z,100759.56
2023-10-23T13:12:32.366Z,100764.38
2023-10-23T13:14:59.148Z,100754.56
2023-10-23T13:17:26.236Z,100756.88
2023-10-23T13:19:54.940Z,100761.47
2023-10-23T13:22:22.111Z,100738.41
2023-10-23T13:24:48.841Z,100742.84
2023-10-23T13:27:18.827Z,100746.69
2023-10-23T13:29:45.712Z,100741.41
2023-10-23T13:32:15.339Z,100746.94
2023-10-23T13:34:45.966Z,100740.38
2023-10-23T13:37:13.589Z,100734.50
2023-10-23T13:39:40.490Z,100739.31
2023-10-23T13:42:07.545Z,100735.84
2023-10-23T13:44:34.350Z,100727.88
2023-10-23T13:47:02.098Z,100740.66
2023-10-23T13:49:29.044Z,100741.50
2023-10-23T13:51:56.191Z,100744.16
2023-10-23T13:54:24.687Z,100744.16
2023-10-23T13:56:51.731Z,100745.00
2023-10-23T13:59:18.425Z,100724.97
2023-10-23T14:01:45.465Z,100737.88
2023-10-23T14:04:12.352Z,100733.19
2023-10-23T14:06:39.554Z,100741.56
2023-10-23T14:09:41.808Z,100728.06
2023-10-23T14:11:59.377Z,100720.78
2023-10-23T14:14:29.428Z,100729.59
2023-10-23T14:16:59.134Z,100726.00
2023-10-23T14:19:42.522Z,100729.84
2023-10-23T14:22:13.376Z,100725.09
2023-10-23T14:24:40.621Z,100734.47
2023-10-23T14:27:07.956Z,100722.97
2023-10-23T14:29:34.707Z,100716.50
2023-10-23T14:32:02.132Z,100714.72
2023-10-23T14:34:29.149Z,100727.44
2023-10-23T14:36:56.675Z,100711.53
2023-10-23T14:39:27.763Z,100723.25
2023-10-23T14:41:54.883Z,100717.19
2023-10-23T14:44:22.042Z,100714.06
2023-10-23T14:46:50.181Z,100711.44
2023-10-23T14:49:18.027Z,100655.53
2023-10-23T14:51:45.360Z,100714.88
2023-10-23T14:54:12.097Z,100709.22
2023-10-23T14:56:39.364Z,100705.38
2023-10-23T14:59:06.139Z,100698.19
2023-10-23T15:01:34.140Z,100705.84
2023-10-23T15:04:01.514Z,100694.22
2023-10-23T15:06:28.776Z,100704.81
2023-10-23T15:08:55.715Z,100702.44
2023-10-23T15:11:23.585Z,100702.66
2023-10-23T15:13:51.539Z,100696.22
2023-10-23T15:16:18.635Z,100687.59
2023-10-23T15:18:45.478Z,100687.41
2023-10-23T15:21:12.747Z,100691.34
2023-10-23T15:23:39.818Z,100689.53
2023-10-23T15:26:06.802Z,100697.34
2023-10-23T15:28:36.423Z,100692.53
2023-10-23T15:31:06.405Z,100690.03
2023-10-23T15:33:35.300Z,100688.59
2023-10-23T15:36:02.925Z,100688.47
2023-10-23T15:38:30.548Z,100671.44
2023-10-23T15:41:12.241Z,100697.03
2023-10-23T15:43:41.153Z,100688.78
2023-10-23T15:46:15.949Z,100687.22
2023-10-23T15:48:43.355Z,100681.22
2023-10-23T15:51:10.477Z,100687.41
2023-10-23T15:53:37.547Z,100672.44
2023-10-23T15:56:05.033Z,100681.28
2023-10-23T15:58:33.198Z,100675.19
2023-10-23T16:01:03.443Z,100689.88
2023-10-23T16:03:30.300Z,100682.94
2023-10-23T16:06:02.106Z,100680.78
2023-10-23T16:08:29.043Z,100679.53
2023-10-23T16:10:56.143Z,100668.03
2023-10-23T16:13:22.916Z,100676.09
2023-10-23T16:15:49.977Z,100651.50
2023-10-23T16:18:17.556Z,100676.78
2023-10-23T16:20:44.891Z,100678.09
2023-10-23T16:23:12.046Z,100679.88
2023-10-23T16:25:43.037Z,100658.56
2023-10-23T16:28:11.181Z,100680.63
2023-10-23T16:30:39.473Z,100678.25
2023-10-23T16:33:07.049Z,100665.22
2023-10-23T16:35:35.486Z,100673.53
2023-10-23T16:38:02.233Z,100665.38
2023-10-23T16:40:29.261Z,100657.66
2023-10-23T16:42:56.100Z,100665.81
2023-10-23T16:45:23.080Z,100667.00
2023-10-23T16:47:50.619Z,100665.97
2023-10-23T16:50:17.782Z,100663.09
2023-10-23T16:52:46.162Z,100667.53
2023-10-23T16:55:13.223Z,100662.03
2023-10-23T16:57:41.821Z,100651.34
2023-10-23T17:00:13.609Z,100637.63
2023-10-23T17:02:41.198Z,100651.06
2023-10-23T17:05:12.413Z,100651.81
2023-10-23T17:07:40.172Z,100652.44
2023-10-23T17:10:08.067Z,100656.47
2023-10-23T17:12:35.241Z,100643.13
2023-10-23T17:15:03.504Z,100652.13
2023-10-23T17:17:30.407Z,100651.91
2023-10-23T17:19:57.629Z,100654.56
2023-10-23T17:22:24.347Z,100662.47
2023-10-23T17:24:51.458Z,100649.50
2023-10-23T17:27:18.120Z,100642.34
2023-10-23T17:29:45.125Z,100648.66
2023-10-23T17:32:12.019Z,100647.16
2023-10-23T17:34:39.297Z,100637.59
2023-10-23T17:37:06.328Z,100631.91
2023-10-23T17:39:33.412Z,100634.28
2023-10-23T17:42:00.964Z,100624.09
2023-10-23T17:44:27.929Z,100644.97
2023-10-23T17:46:54.879Z,100636.19
2023-10-23T17:49:23.109Z,100622.75
2023-10-23T17:51:50.882Z,100626.44
2023-10-23T17:54:18.095Z,100638.16
2023-10-23T17:56:44.849Z,100619.75
2023-10-23T17:59:12.709Z,100628.09
2023-10-23T18:01:43.333Z,100638.59
2023-10-23T18:04:12.291Z,100629.78
2023-10-23T18:06:39.216Z,100643.47
2023-10-23T18:09:06.388Z,100637.00
2023-10-23T18:11:34.041Z,100639.94
2023-10-23T18:14:01.297Z,100632.78
2023-10-23T18:16:28.944Z,100624.41
2023-10-23T18:18:56.716Z,100636.88
2023-10-23T18:21:24.049Z,100640.44
2023-10-23T18:23:52.430Z,100641.31
2023-10-23T18:26:19.399Z,100632.22
2023-10-23T18:28:46.667Z,100625.72
2023-10-23T18:31:13.438Z,100631.16
2023-10-23T18:33:40.522Z,100629.09
2023-10-23T18:36:14.148Z,100618.66
2023-10-23T18:38:42.561Z,100630.09
2023-10-23T18:41:09.654Z,100625.72
2023-10-23T18:43:36.744Z,100620.72
2023-10-23T18:46:03.558Z,100619.03
2023-10-23T18:48:32.751Z,100619.44
2023-10-23T18:51:02.829Z,100621.66
2023-10-23T18:53:29.815Z,100620.41
2023-10-23T18:55:56.516Z,100593.75
2023-10-23T18:58:23.842Z,100611.81
2023-10-23T19:00:51.353Z,100600.91
2023-10-23T19:03:18.527Z,100617.31
2023-10-23T19:05:46.138Z,100620.91
2023-10-23T19:08:13.455Z,100621.38
2023-10-23T19:10:40.790Z,100621.81
2023-10-23T19:13:08.737Z,100627.44
2023-10-23T19:15:35.733Z,100615.94
2023-10-23T19:18:03.161Z,100613.59
2023-10-23T19:20:29.990Z,100619.31
2023-10-23T19:22:56.876Z,100622.88
2023-10-23T19:25:23.947Z,100613.06
2023-10-23T19:27:51.021Z,100622.91
2023-10-23T19:30:17.954Z,100625.06
2023-10-23T19:32:47.262Z,100620.59
2023-10-23T19:35:14.578Z,100622.53
2023-10-23T19:37:42.008Z,100624.44
2023-10-23T19:40:10.566Z,100624.66
2023-10-23T19:42:41.314Z,100624.47
2023-10-23T19:45:11.327Z,100614.63
2023-10-23T19:47:38.612Z,100615.03
2023-10-23T19:50:05.948Z,100599.91
2023-10-23T19:52:37.656Z,100614.03
2023-10-23T19:55:42.636Z,100624.09
2023-10-23T19:57:52.643Z,100619.28
2023-10-23T20:00:19.744Z,100614.66
2023-10-23T20:02:46.735Z,100615.47
2023-10-23T20:05:13.615Z,100614.47
2023-10-23T20:07:40.815Z,100579.22
2023-10-23T20:10:10.957Z,100606.50
2023-10-23T20:12:38.032Z,100601.88
2023-10-23T20:15:05.464Z,100603.16
2023-10-23T20:17:32.419Z,100604.00
2023-10-23T20:19:59.227Z,100607.78
2023-10-23T20:22:26.153Z,100614.09
2023-10-23T20:24:53.278Z,100587.84
2023-10-23T20:27:20.869Z,100601.09
2023-10-23T20:29:47.740Z,100612.44
2023-10-23T20:32:14.802Z,100607.63
2023-10-23T20:34:41.645Z,100596.28
2023-10-23T20:37:08.698Z,100602.78
2023-10-23T20:39:35.388Z,100590.59
2023-10-23T20:42:02.457Z,100597.34
2023-10-23T20:44:29.157Z,100592.25
2023-10-23T20:46:56.503Z,100581.94
2023-10-23T20:49:23.313Z,100555.69
2023-10-23T20:51:50.235Z,100586.09
2023-10-23T20:54:18.098Z,100582.56
2023-10-23T20:56:45.005Z,100573.28
2023-10-23T20:59:11.820Z,100562.59
2023-10-23T21:01:38.801Z,100552.06
2023-10-23T21:04:05.726Z,100555.66
2023-10-23T21:06:33.543Z,100556.66
2023-10-23T21:09:00.235Z,100553.06
2023-10-23T21:11:28.308Z,100534.53
2023-10-23T21:13:55.003Z,100534.56
2023-10-23T21:16:24.387Z,100530.78
2023-10-23T21:18:51.218Z,100524.22
2023-10-23T21:21:18.364Z,100527.56
2023-10-23T21:23:45.093Z,100523.13
2023-10-23T21:26:12.017Z,100502.72
2023-10-23T21:28:40.515Z,100497.41
2023-10-23T21:31:09.131Z,100505.19
2023-10-23T21:33:35.928Z,100486.78
2023-10-23T21:36:02.967Z,100495.72
2023-10-23T21:38:29.778Z,100508.72
2023-10-23T21:40:56.723Z,100502.44
2023-10-23T21:43:23.465Z,100483.78
2023-10-23T21:46:01.849Z,100491.94
2023-10-23T21:48:37.405Z,100493.59
2023-10-23T21:51:06.804Z,100491.09
2023-10-23T21:53:33.829Z,100501.53
2023-10-23T21:56:01.420Z,100503.00
2023-10-23T21:59:03.680Z,100479.94
2023-10-23T22:01:17.858Z,100487.22
2023-10-23T22:03:45.032Z,100482.56
2023-10-23T22:06:12.566Z,100490.31
2023-10-23T22:08:39.543Z,100492.38
2023-10-23T22:11:07.146Z,100476.66
2023-10-23T22:13:34.728Z,100487.53
2023-10-23T22:16:02.187Z,100494.69
2023-10-23T22:18:29.292Z,100481.28
2023-10-23T22:20:56.426Z,100487.88
2023-10-23T22:23:23.286Z,100496.94
2023-10-23T22:25:50.267Z,100501.75
2023-10-23T22:28:17.049Z,100501.94
2023-10-23T22:30:44.233Z,100481.69
2023-10-23T22:33:15.284Z,100480.63
2023-10-23T22:35:43.070Z,100484.44
2023-10-23T22:38:13.781Z,100487.41
2023-10-23T22:40:40.947Z,100479.19
2023-10-23T22:43:07.786Z,100478.06
2023-10-23T22:45:41.246Z,100481.03
2023-10-23T22:48:14.272Z,100466.56
2023-10-23T22:50:41.526Z,100460.81
2023-10-23T22:53:08.486Z,100466.03
2023-10-23T22:55:35.663Z,100468.97
2023-10-23T22:58:05.401Z,100456.59
2023-10-23T23:00:32.649Z,100463.28
2023-10-23T23:02:59.522Z,100472.59
2023-10-23T23:05:26.966Z,100464.59
2023-10-23T23:07:55.345Z,100451.75
2023-10-23T23:10:22.484Z,100467.38
2023-10-23T23:12:49.389Z,100469.72
2023-10-23T23:15:16.853Z,100458.53
2023-10-23T23:17:47.279Z,100464.16
2023-10-23T23:20:14.742Z,100457.47
2023-10-23T23:22:41.553Z,100456.63
2023-10-23T23:25:09.960Z,100447.59
2023-10-23T23:27:36.870Z,100463.59
2023-10-23T23:30:04.018Z,100456.41
2023-10-23T23:32:30.733Z,100457.41
2023-10-23T23:34:57.683Z,100457.19
2023-10-23T23:37:24.341Z,100446.91
2023-10-23T23:39:51.445Z,100428.25
2023-10-23T23:42:18.147Z,100444.16
2023-10-23T23:44:45.203Z,100447.59
2023-10-23T23:47:11.839Z,100436.25
2023-10-23T23:49:40.817Z,100427.88
2023-10-23T23:52:07.821Z,100433.38
2023-10-23T23:54:34.776Z,100434.63
2023-10-23T23:57:01.415Z,100410.97
2023-10-23T23:59:28.325Z,100421.84
